Time;durP1;ratioP1;P1;durP2;ratioP2;P2;SDS_P1;SDS_P2;PMS_P1;PMS_P2;Temp;Humidity;BMP_temperature;BMP_pressure;BME280_temperature;BME280_humidity;BME280_pressure;Samples;Min_cycle;Max_cycle;Signal;HPM_P1;HPM_P2
2022/03/26 00:01:23;;;;;;;;;;;;;;;22.11;37.08;103001.03;7278488;19;152306;-61
2022/03/26 00:03:50;;;;;;;;;;;;;;;21.97;36.04;102996.13;7278813;19;152424;-65
2022/03/26 00:06:24;;;;;;;;;;;;;;;22.01;36.75;102994.47;7276407;19;154601;-65
2022/03/26 00:08:51;;;;;;;;;;;;;;;22.01;36.91;102998.13;7278195;19;152313;-65
2022/03/26 00:11:17;;;;;;;;;;;;;;;21.98;37.07;102998.69;7275224;19;153268;-67
2022/03/26 00:13:44;;;;;;;;;;;;;;;21.98;37.53;102995.00;7275453;19;153351;-66
2022/03/26 00:16:13;;;;;;;;;;;;;;;21.98;37.42;102992.19;7277585;19;152208;-63
2022/03/26 00:18:47;;;;;;;;;;;;;;;21.97;37.22;102996.97;7282981;19;153496;-65
2022/03/26 00:21:14;;;;;;;;;;;;;;;21.97;37.60;102998.94;7276247;19;151690;-66
2022/03/26 00:23:41;;;;;;;;;;;;;;;21.94;37.74;102994.69;7278873;19;152594;-66
2022/03/26 00:26:10;;;;;;;;;;;;;;;21.95;37.88;102989.91;7276397;19;155629;-67
2022/03/26 00:28:40;;;;;;;;;;;;;;;21.94;37.77;102988.22;7277723;19;151963;-67
2022/03/26 00:31:18;;;;;;;;;;;;;;;21.91;38.01;102995.19;7278491;19;153074;-65
2022/03/26 00:33:55;;;;;;;;;;;;;;;21.91;38.15;102994.34;7274161;19;153078;-67
2022/03/26 00:36:22;;;;;;;;;;;;;;;21.88;38.42;102986.44;7276226;19;152674;-66
2022/03/26 00:38:49;;;;;;;;;;;;;;;21.89;38.49;102990.97;7283600;19;153908;-65
2022/03/26 00:41:16;;;;;;;;;;;;;;;21.89;38.60;102982.53;7290555;19;154228;-64
2022/03/26 00:43:43;;;;;;;;;;;;;;;21.87;38.36;103001.63;7283116;19;154651;-65
2022/03/26 00:46:11;;;;;;;;;;;;;;;21.86;38.71;102992.31;7282549;19;153933;-65
2022/03/26 00:48:41;;;;;;;;;;;;;;;21.84;38.52;102999.34;7281114;19;152507;-64
2022/03/26 00:51:08;;;;;;;;;;;;;;;21.83;38.75;102990.06;7283978;19;153386;-64
2022/03/26 00:53:35;;;;;;;;;;;;;;;21.82;38.48;102987.50;7280953;19;153722;-62
2022/03/26 00:56:04;;;;;;;;;;;;;;;21.81;38.85;102995.09;7283811;19;152396;-62
2022/03/26 00:58:30;;;;;;;;;;;;;;;21.80;38.92;102999.03;7280790;19;153617;-62
2022/03/26 01:00:57;;;;;;;;;;;;;;;21.78;39.15;102995.63;7280069;19;153938;-65
2022/03/26 01:03:24;;;;;;;;;;;;;;;21.79;38.58;102994.53;7289291;19;152033;-63
2022/03/26 01:05:51;;;;;;;;;;;;;;;21.78;38.78;102991.97;7281140;19;154542;-62
2022/03/26 01:08:18;;;;;;;;;;;;;;;21.76;39.22;102994.22;7280866;19;152196;-64
2022/03/26 01:10:45;;;;;;;;;;;;;;;21.77;39.07;103007.16;7282206;19;153253;-64
2022/03/26 01:13:12;;;;;;;;;;;;;;;21.74;39.19;102998.16;7278344;19;153356;-62
2022/03/26 01:15:39;;;;;;;;;;;;;;;21.74;39.15;103000.09;7279306;19;152237;-63
2022/03/26 01:18:06;;;;;;;;;;;;;;;21.72;39.03;102999.50;7281857;19;152868;-63
2022/03/26 01:20:33;;;;;;;;;;;;;;;21.71;39.05;102997.84;7281003;19;153567;-65
2022/03/26 01:22:59;;;;;;;;;;;;;;;21.71;39.20;102997.84;7281007;19;152515;-64
2022/03/26 01:25:26;;;;;;;;;;;;;;;21.67;39.43;102988.19;7289290;19;152794;-64
2022/03/26 01:27:53;;;;;;;;;;;;;;;21.68;39.39;102999.19;7283058;19;151763;-63
2022/03/26 01:30:20;;;;;;;;;;;;;;;21.67;39.30;102986.25;7279794;19;152529;-63
2022/03/26 01:32:48;;;;;;;;;;;;;;;21.66;39.37;102994.97;7281222;19;152576;-64
2022/03/26 01:35:15;;;;;;;;;;;;;;;21.66;39.38;102989.34;7281643;19;153889;-61
2022/03/26 01:37:42;;;;;;;;;;;;;;;21.63;39.35;102979.44;7280835;19;153069;-61
2022/03/26 01:40:09;;;;;;;;;;;;;;;21.64;39.73;102978.34;7278563;19;154287;-63
2022/03/26 01:42:36;;;;;;;;;;;;;;;21.63;39.86;102984.22;7279824;19;151607;-63
2022/03/26 01:45:03;;;;;;;;;;;;;;;21.61;39.48;102983.66;7282286;19;153074;-62
2022/03/26 01:47:29;;;;;;;;;;;;;;;21.58;39.65;102978.53;7288687;19;152181;-62
2022/03/26 01:49:56;;;;;;;;;;;;;;;21.58;39.63;102982.22;7280761;19;153605;-62
2022/03/26 01:52:23;;;;;;;;;;;;;;;21.56;39.70;102983.59;7280774;19;153305;-63
2022/03/26 01:54:49;;;;;;;;;;;;;;;21.58;39.79;102978.53;7278291;19;152048;-63
2022/03/26 01:57:16;;;;;;;;;;;;;;;21.55;39.91;102979.09;7281238;19;152925;-63
2022/03/26 01:59:43;;;;;;;;;;;;;;;21.53;39.63;102979.34;7281163;19;153229;-63
2022/03/26 02:02:10;;;;;;;;;;;;;;;21.49;39.97;102975.38;7282250;19;151974;-63
2022/03/26 02:04:36;;;;;;;;;;;;;;;21.51;39.78;102984.41;7281316;19;152749;-65
2022/03/26 02:07:04;;;;;;;;;;;;;;;21.51;40.10;102981.59;7288935;19;153444;-64
2022/03/26 02:09:35;;;;;;;;;;;;;;;21.50;39.95;102979.88;7281541;19;153441;-64
2022/03/26 02:12:21;;;;;;;;;;;;;;;21.50;39.98;102971.44;7278658;19;154138;-63
2022/03/26 02:14:48;;;;;;;;;;;;;;;21.46;40.04;102975.91;7279979;19;153734;-62
2022/03/26 02:17:16;;;;;;;;;;;;;;;21.45;40.22;102971.38;7278981;19;153491;-63
2022/03/26 02:19:53;;;;;;;;;;;;;;;21.48;40.10;102972.84;7278319;19;153156;-62
2022/03/26 02:22:21;;;;;;;;;;;;;;;21.45;40.65;102979.84;7280522;19;152065;-64
2022/03/26 02:24:48;;;;;;;;;;;;;;;21.44;40.38;102975.31;7279476;19;152743;-63
2022/03/26 02:27:18;;;;;;;;;;;;;;;21.43;40.44;102970.81;7277537;19;153398;-62
2022/03/26 02:29:45;;;;;;;;;;;;;;;21.44;40.87;102978.13;7288920;19;151878;-63
2022/03/26 02:32:12;;;;;;;;;;;;;;;21.44;40.63;102978.13;7279446;19;153003;-64
2022/03/26 02:34:39;;;;;;;;;;;;;;;21.41;41.03;102973.03;7278581;19;152034;-63
2022/03/26 02:37:25;;;;;;;;;;;;;;;21.39;40.82;102971.63;7281500;19;153537;-63
2022/03/26 02:39:52;;;;;;;;;;;;;;;21.40;41.09;102973.28;7276629;19;152952;-62
2022/03/26 02:42:19;;;;;;;;;;;;;;;21.40;40.89;102970.47;7280891;19;152983;-64
2022/03/26 02:44:45;;;;;;;;;;;;;;;21.39;41.21;102969.66;7281502;19;153459;-64
2022/03/26 02:47:13;;;;;;;;;;;;;;;21.39;40.92;102966.00;7278267;19;154109;-63
2022/03/26 02:49:39;;;;;;;;;;;;;;;21.40;41.18;102970.47;7276373;19;152572;-63
2022/03/26 02:52:07;;;;;;;;;;;;;;;21.37;40.79;102969.06;7287363;19;153705;-66
2022/03/26 02:54:35;;;;;;;;;;;;;;;21.35;40.91;102962.84;7277933;19;152305;-66
2022/03/26 02:57:03;;;;;;;;;;;;;;;21.35;41.11;102974.09;7280389;19;154038;-65
2022/03/26 02:59:29;;;;;;;;;;;;;;;21.32;40.95;102968.16;7279106;19;155237;-67
2022/03/26 03:01:57;;;;;;;;;;;;;;;21.34;40.80;102963.97;7279375;19;153939;-66
2022/03/26 03:04:24;;;;;;;;;;;;;;;21.33;40.83;102964.25;7277713;19;153618;-67
2022/03/26 03:06:51;;;;;;;;;;;;;;;21.34;41.08;102958.34;7278749;19;155532;-64
2022/03/26 03:09:18;;;;;;;;;;;;;;;21.31;40.97;102961.69;7278186;19;152498;-62
2022/03/26 03:11:45;;;;;;;;;;;;;;;21.29;41.42;102955.50;7278613;19;153633;-63
2022/03/26 03:14:11;;;;;;;;;;;;;;;21.28;41.42;102953.78;7282891;19;154394;-63
2022/03/26 03:19:33;;;;;;;;;;;;;;;21.27;40.96;102947.31;7267568;19;152283;-62
2022/03/26 03:22:00;;;;;;;;;;;;;;;21.26;41.00;102950.38;7281019;19;151842;-62
2022/03/26 03:24:27;;;;;;;;;;;;;;;21.26;41.43;102956.00;7278857;19;152763;-61
2022/03/26 03:26:59;;;;;;;;;;;;;;;21.23;41.09;102951.75;7276050;19;153305;-62
2022/03/26 03:29:25;;;;;;;;;;;;;;;21.26;41.02;102958.81;7279382;19;152674;-61
2022/03/26 03:31:52;;;;;;;;;;;;;;;21.24;41.50;102961.06;7274811;19;153208;-62
2022/03/26 03:34:19;;;;;;;;;;;;;;;21.25;41.35;102959.94;7277535;19;155089;-62
2022/03/26 03:36:46;;;;;;;;;;;;;;;21.21;41.52;102959.59;7286808;19;152299;-61
2022/03/26 03:39:12;;;;;;;;;;;;;;;21.20;41.33;102949.50;7274918;19;153294;-61
2022/03/26 03:41:39;;;;;;;;;;;;;;;21.19;41.23;102958.19;7279457;19;151777;-63
2022/03/26 03:44:06;;;;;;;;;;;;;;;21.20;41.59;102959.88;7278809;19;152643;-64
2022/03/26 03:46:33;;;;;;;;;;;;;;;21.18;41.68;102959.28;7275752;19;154484;-61
2022/03/26 03:49:00;;;;;;;;;;;;;;;21.17;41.61;102951.97;7276651;19;152101;-63
2022/03/26 03:51:27;;;;;;;;;;;;;;;21.16;41.25;102962.38;7276004;19;152606;-62
2022/03/26 03:53:54;;;;;;;;;;;;;;;21.15;41.84;102962.63;7278006;19;152430;-63
2022/03/26 03:56:23;;;;;;;;;;;;;;;21.14;41.50;102960.94;7286210;19;152209;-62
2022/03/26 03:58:50;;;;;;;;;;;;;;;21.15;41.72;102971.06;7278447;19;153672;-63
2022/03/26 04:01:16;;;;;;;;;;;;;;;21.13;41.44;102962.88;7277989;19;152182;-64
2022/03/26 04:03:43;;;;;;;;;;;;;;;21.11;41.77;102964.25;7278877;19;152913;-63
2022/03/26 04:06:11;;;;;;;;;;;;;;;21.12;41.61;102963.13;7278003;19;154008;-62
2022/03/26 04:08:41;;;;;;;;;;;;;;;21.09;41.81;102958.88;7277518;19;152066;-62
2022/03/26 04:11:08;;;;;;;;;;;;;;;21.11;41.94;102964.25;7276502;19;152723;-62
2022/03/26 04:13:40;;;;;;;;;;;;;;;21.10;41.89;102959.72;7272986;19;152856;-63
2022/03/26 04:16:07;;;;;;;;;;;;;;;21.07;41.72;102963.94;7275435;19;151581;-64
2022/03/26 04:18:34;;;;;;;;;;;;;;;21.05;42.15;102960.53;7284279;19;152865;-63
2022/03/26 04:21:01;;;;;;;;;;;;;;;21.06;42.05;102962.22;7278017;19;151892;-63
2022/03/26 04:23:27;;;;;;;;;;;;;;;21.06;42.14;102972.63;7278575;19;153131;-64
2022/03/26 04:25:54;;;;;;;;;;;;;;;21.04;42.04;102969.19;7275337;19;155234;-63
2022/03/26 04:28:28;;;;;;;;;;;;;;;21.04;42.19;102972.00;7278220;19;152166;-63
2022/03/26 04:31:19;;;;;;;;;;;;;;;21.03;42.19;102965.53;7275663;19;152529;-61
2022/03/26 04:34:01;;;;;;;;;;;;;;;21.02;42.02;102968.63;7276057;19;152156;-63
2022/03/26 04:36:29;;;;;;;;;;;;;;;21.01;42.18;102969.75;7274430;19;152063;-63
2022/03/26 04:38:56;;;;;;;;;;;;;;;20.98;42.11;102971.13;7276326;19;152649;-61
2022/03/26 04:41:24;;;;;;;;;;;;;;;21.02;41.86;102971.44;7279060;19;153754;-62
2022/03/26 04:43:51;;;;;;;;;;;;;;;21.02;42.33;102972.31;7277493;19;153089;-62
2022/03/26 04:46:18;;;;;;;;;;;;;;;20.99;42.27;102975.63;7272840;19;153963;-62
2022/03/26 04:48:47;;;;;;;;;;;;;;;20.98;42.26;102975.91;7277071;19;151879;-61
2022/03/26 04:51:14;;;;;;;;;;;;;;;21.01;42.01;102966.94;7273506;19;153314;-61
2022/03/26 04:53:41;;;;;;;;;;;;;;;21.00;42.31;102974.50;7275972;19;152414;-61
2022/03/26 04:56:08;;;;;;;;;;;;;;;20.99;42.44;102975.63;7273961;19;152475;-62
2022/03/26 04:58:34;;;;;;;;;;;;;;;20.96;42.28;102967.72;7276504;19;153479;-61
2022/03/26 05:01:01;;;;;;;;;;;;;;;20.96;41.89;102973.34;7275689;19;153223;-61
2022/03/26 05:03:28;;;;;;;;;;;;;;;20.96;41.98;102970.53;7284273;19;152049;-62
2022/03/26 05:05:55;;;;;;;;;;;;;;;20.96;41.81;102975.28;7274013;19;155434;-62
2022/03/26 05:08:22;;;;;;;;;;;;;;;20.95;42.20;102980.06;7276860;19;152125;-63
2022/03/26 05:10:48;;;;;;;;;;;;;;;20.92;42.02;102976.94;7273549;19;153360;-62
2022/03/26 05:13:15;;;;;;;;;;;;;;;20.92;42.09;102974.97;7273004;19;154055;-62
2022/03/26 05:15:42;;;;;;;;;;;;;;;20.91;42.49;102978.88;7274335;19;152052;-62
2022/03/26 05:18:09;;;;;;;;;;;;;;;20.90;42.39;102980.00;7275364;19;152685;-62
2022/03/26 05:20:35;;;;;;;;;;;;;;;20.91;42.12;102975.22;7272644;19;153926;-62
2022/03/26 05:23:03;;;;;;;;;;;;;;;20.85;42.12;102977.97;7273111;19;152266;-62
2022/03/26 05:25:30;;;;;;;;;;;;;;;20.84;41.95;102987.53;7286670;19;153253;-62
2022/03/26 05:27:57;;;;;;;;;;;;;;;20.86;42.02;102992.88;7282343;19;151737;-62
2022/03/26 05:30:24;;;;;;;;;;;;;;;20.85;42.15;102997.63;7282813;19;154427;-62
2022/03/26 05:32:51;;;;;;;;;;;;;;;20.85;42.10;102991.16;7278505;19;153242;-61
2022/03/26 05:35:18;;;;;;;;;;;;;;;20.85;42.19;102991.16;7280945;19;151986;-62
2022/03/26 05:37:49;;;;;;;;;;;;;;;20.84;42.25;102998.78;7281646;19;152942;-62
2022/03/26 05:40:18;;;;;;;;;;;;;;;20.82;42.17;103000.97;7281706;19;153725;-62
2022/03/26 05:42:45;;;;;;;;;;;;;;;20.81;41.92;103004.88;7279234;19;151955;-62
2022/03/26 05:45:12;;;;;;;;;;;;;;;20.80;42.17;103005.16;7281723;19;153373;-62
2022/03/26 05:47:39;;;;;;;;;;;;;;;20.81;42.12;103009.66;7288374;19;153227;-64
2022/03/26 05:50:07;;;;;;;;;;;;;;;20.79;42.00;103012.75;7278856;19;152783;-63
2022/03/26 05:52:34;;;;;;;;;;;;;;;20.79;42.32;103014.69;7280991;19;154057;-63
2022/03/26 05:55:00;;;;;;;;;;;;;;;20.79;42.30;103023.13;7278131;19;153281;-62
2022/03/26 05:57:27;;;;;;;;;;;;;;;20.78;42.15;103021.44;7280362;19;155188;-62
2022/03/26 05:59:54;;;;;;;;;;;;;;;20.76;42.20;103023.63;7280236;19;153923;-63
2022/03/26 06:02:21;;;;;;;;;;;;;;;20.75;42.38;103025.63;7279952;19;152273;-63
2022/03/26 06:04:48;;;;;;;;;;;;;;;20.76;42.20;103023.63;7278446;19;153764;-62
2022/03/26 06:07:15;;;;;;;;;;;;;;;20.72;41.93;103022.44;7285421;19;153183;-62
2022/03/26 06:09:42;;;;;;;;;;;;;;;20.73;41.96;103025.00;7281340;19;153843;-62
2022/03/26 06:12:09;;;;;;;;;;;;;;;20.73;42.25;103027.81;7279494;19;154138;-63
2022/03/26 06:14:35;;;;;;;;;;;;;;;20.71;42.43;103027.25;7273771;19;153997;-61
2022/03/26 06:17:02;;;;;;;;;;;;;;;20.72;42.13;103028.94;7281750;19;152972;-63
2022/03/26 06:19:29;;;;;;;;;;;;;;;20.71;42.39;103030.06;7278475;19;154170;-62
2022/03/26 06:21:56;;;;;;;;;;;;;;;20.72;41.97;103034.53;7280495;19;152413;-62
2022/03/26 06:24:22;;;;;;;;;;;;;;;20.71;42.14;103032.00;7281619;19;152269;-63
2022/03/26 06:26:49;;;;;;;;;;;;;;;20.70;41.90;103033.13;7278896;19;153955;-62
2022/03/26 06:29:22;;;;;;;;;;;;;;;20.70;41.91;103036.78;7288517;19;152033;-63
2022/03/26 06:31:49;;;;;;;;;;;;;;;20.70;42.04;103042.41;7279382;19;154084;-64
2022/03/26 06:34:15;;;;;;;;;;;;;;;20.68;42.28;103038.97;7279839;19;152139;-64
2022/03/26 06:36:42;;;;;;;;;;;;;;;20.70;42.14;103041.53;7277865;19;153365;-63
2022/03/26 06:39:09;;;;;;;;;;;;;;;20.67;42.06;103048.50;7280311;19;153207;-62
2022/03/26 06:41:41;;;;;;;;;;;;;;;20.67;42.34;103050.50;7280156;19;152131;-62
2022/03/26 06:44:08;;;;;;;;;;;;;;;20.66;41.90;103045.97;7280825;19;155143;-62
2022/03/26 06:46:35;;;;;;;;;;;;;;;20.65;41.93;103056.38;7278559;19;154583;-64
2022/03/26 06:49:02;;;;;;;;;;;;;;;20.65;42.26;103050.75;7281381;19;151628;-62
2022/03/26 06:51:29;;;;;;;;;;;;;;;20.60;42.21;103045.03;7286902;19;153345;-63
2022/03/26 06:53:57;;;;;;;;;;;;;;;20.61;42.14;103046.75;7278304;19;152090;-63
2022/03/26 06:56:24;;;;;;;;;;;;;;;20.63;42.06;103049.28;7278308;19;153635;-62
2022/03/26 06:58:51;;;;;;;;;;;;;;;20.63;42.32;103050.13;7276119;19;154043;-62
2022/03/26 07:01:18;;;;;;;;;;;;;;;20.60;41.97;103045.03;7280106;19;151991;-62
2022/03/26 07:03:44;;;;;;;;;;;;;;;20.61;42.18;103049.56;7277726;19;153017;-62
2022/03/26 07:06:13;;;;;;;;;;;;;;;20.58;42.16;103044.44;7279230;19;154202;-64
2022/03/26 07:08:40;;;;;;;;;;;;;;;20.61;42.29;103055.19;7277828;19;152355;-63
2022/03/26 07:11:06;;;;;;;;;;;;;;;20.59;41.82;103046.16;7277817;19;153777;-62
2022/03/26 07:13:33;;;;;;;;;;;;;;;20.58;41.86;103050.06;7283475;19;153372;-62
2022/03/26 07:16:00;;;;;;;;;;;;;;;20.53;42.08;103054.78;7277560;19;153215;-62
2022/03/26 07:18:26;;;;;;;;;;;;;;;20.55;41.87;103056.19;7279292;19;153964;-62
2022/03/26 07:20:58;;;;;;;;;;;;;;;20.55;41.99;103061.81;7279191;19;152545;-62
2022/03/26 07:23:26;;;;;;;;;;;;;;;20.55;42.21;103058.16;7280244;19;152716;-62
2022/03/26 07:25:52;;;;;;;;;;;;;;;20.52;42.02;103061.50;7276556;19;154034;-62
2022/03/26 07:28:19;;;;;;;;;;;;;;;20.52;42.38;103067.97;7277114;19;151856;-62
2022/03/26 07:30:46;;;;;;;;;;;;;;;20.51;42.29;103073.81;7276713;19;153591;-64
2022/03/26 07:33:13;;;;;;;;;;;;;;;20.51;42.14;103071.88;7278630;19;153212;-63
2022/03/26 07:35:40;;;;;;;;;;;;;;;20.53;42.58;103072.47;7284588;19;151813;-65
2022/03/26 07:38:07;;;;;;;;;;;;;;;20.54;42.98;103062.91;7278932;19;153412;-64
2022/03/26 07:40:33;;;;;;;;;;;;;;;20.56;42.84;103069.16;7278365;19;152249;-63
2022/03/26 07:43:00;;;;;;;;;;;;;;;20.60;42.89;103072.28;7279184;19;152695;-64
2022/03/26 07:45:27;;;;;;;;;;;;;;;20.61;43.16;103080.47;7277507;19;154275;-64
2022/03/26 07:47:53;;;;;;;;;;;;;;;20.64;43.33;103077.13;7277385;19;152018;-63
2022/03/26 07:50:22;;;;;;;;;;;;;;;20.68;43.26;103078.31;7276129;19;152034;-64
2022/03/26 07:52:48;;;;;;;;;;;;;;;20.72;43.45;103084.25;7278160;19;153303;-62
2022/03/26 07:55:15;;;;;;;;;;;;;;;20.78;43.85;103080.41;7279021;19;152097;-64
2022/03/26 07:57:42;;;;;;;;;;;;;;;20.84;44.09;103080.25;7283836;19;153355;-62
2022/03/26 08:00:09;;;;;;;;;;;;;;;20.90;44.17;103086.78;7278859;19;152502;-62
2022/03/26 08:02:35;;;;;;;;;;;;;;;20.96;44.35;103087.69;7278825;19;153173;-63
2022/03/26 08:05:02;;;;;;;;;;;;;;;21.05;43.62;103084.19;7277369;19;155641;-64
2022/03/26 08:07:29;;;;;;;;;;;;;;;21.11;43.71;103094.41;7278900;19;152200;-64
2022/03/26 08:09:56;;;;;;;;;;;;;;;21.17;43.73;103084.94;7275315;19;153578;-63
2022/03/26 08:12:22;;;;;;;;;;;;;;;21.22;43.45;103085.00;7273292;19;154465;-63
2022/03/26 08:14:50;;;;;;;;;;;;;;;21.28;43.77;103091.56;7278393;19;151805;-63
2022/03/26 08:17:17;;;;;;;;;;;;;;;21.33;43.34;103091.63;7281253;19;155194;-63
2022/03/26 08:19:45;;;;;;;;;;;;;;;21.38;43.74;103094.50;7275622;19;152181;-64
2022/03/26 08:22:12;;;;;;;;;;;;;;;21.43;43.25;103088.94;7278814;19;152963;-63
2022/03/26 08:24:38;;;;;;;;;;;;;;;21.48;43.29;103086.19;7276098;19;153605;-61
2022/03/26 08:27:05;;;;;;;;;;;;;;;21.53;43.43;103091.03;7278616;19;151907;-64
2022/03/26 08:29:32;;;;;;;;;;;;;;;21.56;43.08;103088.53;7275613;19;152494;-63
2022/03/26 08:32:08;;;;;;;;;;;;;;;21.61;42.91;103091.41;7277234;19;153704;-64
2022/03/26 08:34:35;;;;;;;;;;;;;;;21.64;42.86;103085.25;7277931;19;151757;-62
2022/03/26 08:37:01;;;;;;;;;;;;;;;21.69;43.15;103090.09;7273109;19;153455;-65
2022/03/26 08:39:28;;;;;;;;;;;;;;;21.75;41.80;103091.84;7285011;19;154322;-64
2022/03/26 08:41:55;;;;;;;;;;;;;;;21.53;35.16;103079.78;7277362;19;151831;-62
2022/03/26 08:44:22;;;;;;;;;;;;;;;21.45;36.10;103083.03;7277533;19;153319;-61
2022/03/26 08:46:48;;;;;;;;;;;;;;;21.52;36.89;103084.56;7277919;19;152098;-65
2022/03/26 08:49:20;;;;;;;;;;;;;;;21.58;37.64;103086.28;7275169;19;152969;-65
2022/03/26 08:51:48;;;;;;;;;;;;;;;21.63;37.46;103089.16;7275443;19;153819;-63
2022/03/26 08:54:15;;;;;;;;;;;;;;;21.67;38.18;103090.34;7276543;19;151760;-64
2022/03/26 08:56:42;;;;;;;;;;;;;;;21.72;38.14;103090.41;7276245;19;153117;-63
2022/03/26 08:59:09;;;;;;;;;;;;;;;21.78;38.33;103087.66;7279588;19;153353;-64
2022/03/26 09:01:36;;;;;;;;;;;;;;;21.83;38.40;103091.38;7290519;19;152163;-64
2022/03/26 09:04:04;;;;;;;;;;;;;;;21.88;38.46;103088.63;7282227;19;154311;-63
2022/03/26 09:06:31;;;;;;;;;;;;;;;21.94;38.28;103092.38;7283514;19;152228;-65
2022/03/26 09:08:58;;;;;;;;;;;;;;;21.99;38.49;103092.41;7283065;19;153364;-64
2022/03/26 09:11:25;;;;;;;;;;;;;;;22.05;38.63;103094.16;7282440;19;153636;-63
2022/03/26 09:13:52;;;;;;;;;;;;;;;22.11;38.43;103091.13;7280925;19;153650;-63
2022/03/26 09:16:18;;;;;;;;;;;;;;;22.17;38.56;103092.00;7282893;19;153720;-63
2022/03/26 09:18:46;;;;;;;;;;;;;;;22.23;38.59;103095.72;7282268;19;154319;-61
2022/03/26 09:21:12;;;;;;;;;;;;;;;22.29;38.46;103095.50;7281583;19;152712;-63
2022/03/26 09:23:39;;;;;;;;;;;;;;;22.35;38.17;103094.41;7289852;19;152675;-65
2022/03/26 09:26:06;;;;;;;;;;;;;;;22.40;38.35;103099.25;7282309;19;152051;-63
2022/03/26 09:28:33;;;;;;;;;;;;;;;22.45;38.06;103090.84;7281193;19;153436;-64
2022/03/26 09:31:00;;;;;;;;;;;;;;;22.51;38.45;103090.63;7281589;19;152516;-63
2022/03/26 09:33:27;;;;;;;;;;;;;;;22.59;38.19;103095.75;7281715;19;152539;-64
2022/03/26 09:35:53;;;;;;;;;;;;;;;22.65;38.22;103099.47;7282239;19;153023;-64
2022/03/26 09:38:25;;;;;;;;;;;;;;;22.70;38.14;103091.09;7281438;19;153463;-65
2022/03/26 09:40:52;;;;;;;;;;;;;;;22.76;38.28;103089.16;7280887;19;152062;-64
2022/03/26 09:43:18;;;;;;;;;;;;;;;22.80;38.16;103088.34;7281903;19;153861;-64
2022/03/26 09:45:45;;;;;;;;;;;;;;;22.85;37.90;103081.88;7289055;19;154063;-65
2022/03/26 09:48:12;;;;;;;;;;;;;;;22.89;37.90;103086.72;7282653;19;152565;-64
2022/03/26 09:50:41;;;;;;;;;;;;;;;22.94;38.10;103094.34;7281481;19;154518;-65
2022/03/26 09:53:12;;;;;;;;;;;;;;;22.98;37.68;103093.53;7281621;19;154145;-64
2022/03/26 09:55:39;;;;;;;;;;;;;;;23.01;37.85;103089.31;7281530;19;154375;-62
2022/03/26 09:58:06;;;;;;;;;;;;;;;23.04;37.73;103089.59;7276140;19;153286;-64
2022/03/26 10:00:33;;;;;;;;;;;;;;;23.04;37.31;103091.56;7283353;19;152468;-64
2022/03/26 10:03:00;;;;;;;;;;;;;;;23.03;37.24;103092.72;7282243;19;152905;-61
2022/03/26 10:05:34;;;;;;;;;;;;;;;23.02;37.18;103097.50;7281253;19;153513;-62
2022/03/26 10:08:20;;;;;;;;;;;;;;;23.01;37.39;103087.34;7266260;19;152116;-61
2022/03/26 10:10:47;;;;;;;;;;;;;;;22.97;37.44;103082.50;7278067;19;153675;-62
2022/03/26 10:13:33;;;;;;;;;;;;;;;22.97;37.47;103085.34;7276498;19;151877;-62
2022/03/26 10:16:04;;;;;;;;;;;;;;;22.99;37.27;103089.56;7281679;19;153403;-61
2022/03/26 10:18:35;;;;;;;;;;;;;;;22.98;37.43;103085.06;7274799;19;154141;-61
2022/03/26 10:21:02;;;;;;;;;;;;;;;22.97;37.45;103088.16;7279128;19;152225;-62
2022/03/26 10:23:29;;;;;;;;;;;;;;;22.99;37.33;103095.19;7280642;19;153342;-61
2022/03/26 10:26:06;;;;;;;;;;;;;;;22.99;37.50;103083.06;7278163;19;153323;-62
2022/03/26 10:28:33;;;;;;;;;;;;;;;22.96;37.38;103084.47;7287942;19;151782;-62
2022/03/26 10:34:03;;;;;;;;;;;;;;;22.94;37.02;103071.78;7279978;19;151944;-62
2022/03/26 10:36:30;;;;;;;;;;;;;;;22.95;36.98;103081.94;7278910;19;153337;-63
2022/03/26 10:38:57;;;;;;;;;;;;;;;23.12;39.00;103076.97;7278973;19;154482;-68
2022/03/26 10:41:24;;;;;;;;;;;;;;;23.04;39.67;103081.13;7278741;19;151994;-69
2022/03/26 10:44:04;;;;;;;;;;;;;;;23.04;40.00;103071.81;7281032;19;154180;-65
2022/03/26 10:46:39;;;;;;;;;;;;;;;23.07;39.31;103074.13;7252194;19;155969;-67
2022/03/26 10:49:07;;;;;;;;;;;;;;;23.03;40.27;103068.16;7274519;19;156003;-68
2022/03/26 10:51:35;;;;;;;;;;;;;;;23.04;39.82;103069.84;7284447;19;152403;-65
2022/03/26 10:54:07;;;;;;;;;;;;;;;23.38;40.91;103063.81;7280346;19;152114;-58
2022/03/26 10:56:33;;;;;;;;;;;;;;;23.32;40.73;103059.25;7277695;19;153165;-61
2022/03/26 10:59:00;;;;;;;;;;;;;;;23.26;42.34;103066.84;7277353;19;153765;-58
2022/03/26 11:01:27;;;;;;;;;;;;;;;23.22;41.72;103068.53;7277803;19;151831;-58
2022/03/26 11:03:54;;;;;;;;;;;;;;;23.20;41.46;103059.50;7277610;19;153675;-58
2022/03/26 11:06:24;;;;;;;;;;;;;;;23.19;40.88;103066.28;7276871;19;152144;-58
2022/03/26 11:08:59;;;;;;;;;;;;;;;23.18;40.58;103061.75;7276279;19;152274;-59
2022/03/26 11:11:29;;;;;;;;;;;;;;;23.18;40.69;103056.09;7277290;19;153435;-57
2022/03/26 11:14:00;;;;;;;;;;;;;;;23.17;40.64;103053.59;7285881;19;154111;-58
2022/03/26 11:16:45;;;;;;;;;;;;;;;23.16;40.18;103058.38;7280199;19;152780;-59
2022/03/26 11:19:22;;;;;;;;;;;;;;;23.17;40.27;103054.41;7278827;19;153666;-59
2022/03/26 11:22:07;;;;;;;;;;;;;;;23.18;40.41;103049.63;7279920;19;151734;-59
2022/03/26 11:24:53;;;;;;;;;;;;;;;23.18;40.16;103047.66;7279125;19;153742;-58
2022/03/26 11:27:28;;;;;;;;;;;;;;;23.21;39.74;103051.91;7279385;19;153573;-58
2022/03/26 11:30:04;;;;;;;;;;;;;;;23.21;39.74;103049.94;7278814;19;152376;-57
2022/03/26 11:32:34;;;;;;;;;;;;;;;23.21;39.54;103055.56;7280032;19;153196;-58
2022/03/26 11:35:03;;;;;;;;;;;;;;;23.23;40.02;103044.00;7275497;19;155907;-58
2022/03/26 11:37:30;;;;;;;;;;;;;;;23.21;39.86;103047.13;7285122;19;151679;-59
2022/03/26 11:39:57;;;;;;;;;;;;;;;23.22;39.49;103053.56;7278417;19;153672;-59
2022/03/26 11:42:33;;;;;;;;;;;;;;;23.21;39.90;103044.28;7278424;19;152257;-58
2022/03/26 11:51:19;;;;;;;;;;;;;;;23.18;39.37;103042.00;7279415;19;152029;-58
2022/03/26 11:53:55;;;;;;;;;;;;;;;23.20;39.45;103056.69;7277294;19;152534;-58
2022/03/26 11:56:23;;;;;;;;;;;;;;;23.19;39.44;103046.53;7277969;19;155708;-58
2022/03/26 11:59:03;;;;;;;;;;;;;;;23.19;39.67;103048.50;7276029;19;151789;-58
2022/03/26 12:01:37;;;;;;;;;;;;;;;23.18;39.67;103044.81;7285808;19;153802;-58
2022/03/26 12:04:11;;;;;;;;;;;;;;;23.18;39.67;103046.78;7279910;19;152416;-58
2022/03/26 12:06:41;;;;;;;;;;;;;;;23.18;39.27;103046.78;7278313;19;153470;-58
2022/03/26 12:09:09;;;;;;;;;;;;;;;23.19;39.36;103031.56;7277705;19;154740;-58
2022/03/26 12:11:37;;;;;;;;;;;;;;;23.19;39.13;103032.44;7277954;19;152202;-58
2022/03/26 12:14:05;;;;;;;;;;;;;;;23.19;39.30;103032.44;7278133;19;156677;-58
2022/03/26 12:16:49;;;;;;;;;;;;;;;23.18;39.04;103035.50;7277679;19;153701;-58
2022/03/26 12:19:34;;;;;;;;;;;;;;;23.17;39.17;103029.03;7278042;19;152655;-58
2022/03/26 12:22:26;;;;;;;;;;;;;;;23.16;39.23;103018.88;7278332;19;152968;-59
2022/03/26 12:24:54;;;;;;;;;;;;;;;23.17;39.54;103022.56;7282523;19;152104;-59
2022/03/26 12:27:22;;;;;;;;;;;;;;;23.16;39.13;103030.16;7278154;19;152612;-58
2022/03/26 12:29:49;;;;;;;;;;;;;;;23.14;39.54;103018.31;7274800;19;157097;-59
2022/03/26 12:32:17;;;;;;;;;;;;;;;23.16;39.29;103021.72;7278639;19;152482;-58
2022/03/26 12:34:51;;;;;;;;;;;;;;;23.14;39.05;103023.09;7291590;19;153117;-58
2022/03/26 12:37:18;;;;;;;;;;;;;;;23.14;39.32;103023.94;7290490;19;154098;-57
2022/03/26 12:39:45;;;;;;;;;;;;;;;23.12;39.41;103014.94;7291725;19;152039;-58
2022/03/26 12:42:12;;;;;;;;;;;;;;;23.12;39.36;103014.94;7292574;19;153080;-58
2022/03/26 12:44:42;;;;;;;;;;;;;;;23.13;39.09;103015.75;7298077;19;153564;-59
2022/03/26 12:47:09;;;;;;;;;;;;;;;23.13;39.22;103004.47;7290136;19;152775;-58